createdAt,value
2023-02-11T00:01:28.922Z,51.75
2023-02-11T00:03:56.224Z,51.92
2023-02-11T00:06:24.289Z,51.89
2023-02-11T00:08:51.704Z,51.85
2023-02-11T00:11:20.705Z,51.82
2023-02-11T00:13:48.397Z,51.78
2023-02-11T00:16:18.235Z,51.81
2023-02-11T00:18:45.702Z,51.86
2023-02-11T00:21:14.737Z,51.91
2023-02-11T00:23:42.528Z,51.84
2023-02-11T00:26:12.670Z,51.73
2023-02-11T00:28:40.054Z,52.25
2023-02-11T00:31:07.475Z,52.23
2023-02-11T00:33:36.106Z,52.04
2023-02-11T00:36:04.610Z,52.11
2023-02-11T00:38:33.452Z,51.84
2023-02-11T00:41:00.372Z,51.70
2023-02-11T00:43:27.645Z,52.09
2023-02-11T00:45:54.626Z,51.94
2023-02-11T00:48:21.852Z,51.99
2023-02-11T00:50:50.464Z,52.20
2023-02-11T00:53:17.786Z,51.90
2023-02-11T00:55:44.638Z,51.98
2023-02-11T00:58:11.906Z,52.03
2023-02-11T01:00:39.039Z,52.03
2023-02-11T01:03:06.865Z,52.14
2023-02-11T01:05:34.400Z,52.08
2023-02-11T01:08:03.270Z,52.16
2023-02-11T01:10:30.268Z,52.13
2023-02-11T01:12:57.444Z,52.10
2023-02-11T01:15:24.630Z,52.29
2023-02-11T01:17:52.033Z,52.66
2023-02-11T01:20:22.174Z,52.59
2023-02-11T01:22:49.376Z,52.75
2023-02-11T01:25:17.968Z,53.00
2023-02-11T01:27:45.229Z,52.58
2023-02-11T01:30:13.965Z,52.85
2023-02-11T01:32:41.374Z,52.82
2023-02-11T01:35:08.591Z,52.90
2023-02-11T01:37:36.490Z,52.84
2023-02-11T01:40:05.850Z,52.97
2023-02-11T01:42:34.418Z,52.81
2023-02-11T01:45:22.161Z,53.08
2023-02-11T01:47:49.298Z,53.23
2023-02-11T01:50:16.270Z,53.61
2023-02-11T01:52:46.296Z,53.76
2023-02-11T01:55:32.371Z,53.63
2023-02-11T01:58:05.100Z,54.03
2023-02-11T02:00:36.451Z,53.85
2023-02-11T02:03:09.825Z,53.92
2023-02-11T02:05:40.938Z,54.08
2023-02-11T02:08:15.273Z,54.39
2023-02-11T02:10:45.836Z,55.00
2023-02-11T02:13:15.118Z,54.92
2023-02-11T02:15:49.574Z,54.81
2023-02-11T02:18:31.326Z,54.71
2023-02-11T02:21:28.267Z,54.56
2023-02-11T02:24:18.993Z,54.58
2023-02-11T02:27:18.412Z,54.49
2023-02-11T02:30:09.606Z,54.68
2023-02-11T02:32:49.554Z,54.90
2023-02-11T02:35:29.641Z,55.38
2023-02-11T02:38:06.374Z,55.07
2023-02-11T02:40:41.022Z,55.48
2023-02-11T02:43:10.710Z,55.71
2023-02-11T02:45:38.013Z,55.54
2023-02-11T02:48:07.066Z,55.48
2023-02-11T02:50:36.520Z,55.90
2023-02-11T02:53:18.859Z,56.07
2023-02-11T02:55:59.139Z,56.19
2023-02-11T02:59:03.780Z,55.85
2023-02-11T03:01:40.508Z,55.91
2023-02-11T03:04:16.861Z,55.92
2023-02-11T03:06:52.446Z,56.10
2023-02-11T03:09:24.172Z,56.32
2023-02-11T03:11:51.522Z,56.36
2023-02-11T03:14:20.521Z,56.38
2023-02-11T03:16:50.211Z,56.45
2023-02-11T03:19:22.835Z,56.34
2023-02-11T03:21:52.318Z,56.22
2023-02-11T03:24:24.378Z,56.11
2023-02-11T03:26:54.165Z,56.48
2023-02-11T03:29:32.457Z,56.78
2023-02-11T03:32:04.548Z,56.96
2023-02-11T03:34:41.382Z,57.33
2023-02-11T03:37:13.672Z,57.84
2023-02-11T03:39:46.397Z,58.32
2023-02-11T03:42:15.373Z,58.11
2023-02-11T03:44:50.049Z,58.25
2023-02-11T03:47:21.264Z,57.81
2023-02-11T03:49:52.979Z,57.47
2023-02-11T03:52:22.131Z,57.67
2023-02-11T03:54:54.551Z,57.39
2023-02-11T03:57:21.759Z,57.68
2023-02-11T03:59:54.428Z,57.73
2023-02-11T04:02:23.483Z,57.65
2023-02-11T04:04:52.031Z,57.80
2023-02-11T04:07:19.280Z,57.57
2023-02-11T04:09:46.197Z,57.67
2023-02-11T04:12:13.460Z,57.85
2023-02-11T04:14:40.408Z,57.87
2023-02-11T04:17:07.642Z,57.80
2023-02-11T04:19:34.706Z,57.94
2023-02-11T04:22:03.377Z,57.73
2023-02-11T04:24:30.524Z,57.29
2023-02-11T04:26:57.800Z,57.64
2023-02-11T04:29:24.988Z,57.50
2023-02-11T04:31:52.354Z,57.35
2023-02-11T04:34:19.299Z,57.49
2023-02-11T04:36:46.514Z,57.26
2023-02-11T04:39:14.730Z,57.04
2023-02-11T04:41:42.114Z,57.24
2023-02-11T04:44:09.265Z,57.22
2023-02-11T04:46:36.708Z,57.30
2023-02-11T04:49:04.113Z,57.84
2023-02-11T04:51:31.918Z,57.96
2023-02-11T04:53:59.120Z,58.33
2023-02-11T04:56:27.833Z,58.76
2023-02-11T04:58:54.778Z,58.51
2023-02-11T05:01:22.139Z,58.32
2023-02-11T05:03:49.522Z,58.29
2023-02-11T05:06:16.950Z,58.35
2023-02-11T05:08:43.826Z,57.99
2023-02-11T05:11:16.228Z,58.43
2023-02-11T05:13:44.549Z,58.74
2023-02-11T05:16:12.744Z,58.73
2023-02-11T05:18:40.223Z,58.95
2023-02-11T05:21:08.586Z,59.01
2023-02-11T05:23:36.472Z,58.76
2023-02-11T05:26:04.469Z,58.64
2023-02-11T05:28:31.502Z,58.51
2023-02-11T05:31:02.460Z,58.52
2023-02-11T05:33:29.511Z,58.95
2023-02-11T05:35:58.836Z,58.82
2023-02-11T05:38:26.023Z,58.62
2023-02-11T05:40:53.983Z,58.96
2023-02-11T05:43:20.950Z,58.66
2023-02-11T05:45:48.748Z,58.96
2023-02-11T05:48:17.817Z,58.48
2023-02-11T05:50:44.816Z,58.89
2023-02-11T05:53:12.329Z,58.90
2023-02-11T05:55:39.845Z,58.39
2023-02-11T05:58:07.951Z,58.69
2023-02-11T06:00:35.332Z,58.67
2023-02-11T06:03:04.249Z,58.88
2023-02-11T06:05:34.592Z,58.55
2023-02-11T06:08:01.532Z,58.64
2023-02-11T06:10:28.764Z,58.18
2023-02-11T06:12:55.906Z,58.37
2023-02-11T06:15:23.076Z,58.02
2023-02-11T06:17:50.010Z,57.70
2023-02-11T06:20:17.337Z,57.60
2023-02-11T06:22:45.674Z,57.03
2023-02-11T06:25:13.303Z,57.21
2023-02-11T06:27:40.452Z,56.97
2023-02-11T06:30:09.181Z,56.56
2023-02-11T06:32:44.504Z,56.58
2023-02-11T06:35:13.461Z,56.36
2023-02-11T06:37:41.118Z,56.40
2023-02-11T06:40:10.500Z,56.15
2023-02-11T06:42:39.143Z,56.03
2023-02-11T06:45:09.052Z,56.12
2023-02-11T06:47:35.884Z,56.48
2023-02-11T06:50:03.556Z,56.88
2023-02-11T06:52:30.299Z,56.81
2023-02-11T06:54:57.369Z,56.36
2023-02-11T06:57:25.503Z,55.08
2023-02-11T06:59:52.773Z,55.50
2023-02-11T07:02:20.971Z,54.92
2023-02-11T07:04:48.458Z,55.35
2023-02-11T07:07:15.245Z,55.30
2023-02-11T07:09:42.309Z,55.23
2023-02-11T07:12:09.977Z,54.88
2023-02-11T07:14:38.708Z,55.27
2023-02-11T07:17:05.436Z,55.05
2023-02-11T07:19:32.855Z,55.08
2023-02-11T07:21:59.714Z,54.75
2023-02-11T07:24:26.916Z,54.47
2023-02-11T07:26:53.642Z,54.34
2023-02-11T07:29:20.666Z,54.38
2023-02-11T07:31:49.039Z,55.19
2023-02-11T07:34:16.026Z,55.38
2023-02-11T07:36:45.898Z,55.20
2023-02-11T07:39:12.954Z,55.36
2023-02-11T07:41:39.814Z,55.37
2023-02-11T07:44:07.130Z,55.60
2023-02-11T07:46:35.680Z,55.35
2023-02-11T07:49:04.276Z,56.27
2023-02-11T07:51:31.396Z,55.71
2023-02-11T07:53:59.338Z,55.49
2023-02-11T07:56:26.194Z,55.53
2023-02-11T07:58:54.273Z,55.22
2023-02-11T08:01:25.875Z,55.09
2023-02-11T08:03:53.058Z,54.84
2023-02-11T08:06:22.244Z,54.48
2023-02-11T08:08:49.844Z,54.97
2023-02-11T08:11:18.060Z,54.76
2023-02-11T08:13:45.183Z,54.75
2023-02-11T08:16:17.508Z,54.63
2023-02-11T08:18:44.484Z,53.15
2023-02-11T08:21:11.226Z,53.72
2023-02-11T08:23:43.238Z,54.41
2023-02-11T08:26:12.373Z,54.36
2023-02-11T08:28:39.964Z,54.20
2023-02-11T08:31:07.302Z,53.73
2023-02-11T08:33:34.957Z,53.57
2023-02-11T08:36:03.447Z,53.73
2023-02-11T08:38:30.476Z,52.98
2023-02-11T08:40:59.824Z,53.26
2023-02-11T08:43:26.736Z,51.61
2023-02-11T08:45:53.924Z,52.44
2023-02-11T08:48:21.274Z,52.42
2023-02-11T08:50:47.937Z,52.47
2023-02-11T08:53:14.909Z,51.90
2023-02-11T08:55:47.968Z,51.05
2023-02-11T08:58:19.041Z,51.00
2023-02-11T09:00:46.075Z,51.16
2023-02-11T09:03:13.100Z,50.98
2023-02-11T09:05:41.039Z,51.19
2023-02-11T09:08:07.949Z,50.15
2023-02-11T09:10:35.255Z,50.41
2023-02-11T09:13:02.479Z,50.70
2023-02-11T09:15:30.891Z,50.12
2023-02-11T09:17:58.206Z,49.37
2023-02-11T09:20:26.514Z,50.09
2023-02-11T09:22:53.901Z,49.14
2023-02-11T09:25:20.768Z,51.58
2023-02-11T09:27:47.901Z,50.82
2023-02-11T09:30:14.674Z,49.87
2023-02-11T09:32:43.065Z,49.84
2023-02-11T09:35:10.032Z,49.42
2023-02-11T09:37:37.566Z,48.99
2023-02-11T09:40:04.909Z,48.56
2023-02-11T09:42:40.478Z,46.58
2023-02-11T09:45:12.853Z,47.33
2023-02-11T09:47:45.733Z,46.63
2023-02-11T09:50:15.728Z,44.56
2023-02-11T09:52:45.553Z,45.07
2023-02-11T09:55:17.107Z,69.57
2023-02-11T09:57:44.363Z,61.36
2023-02-11T10:00:17.236Z,55.80
2023-02-11T10:02:53.752Z,47.62
2023-02-11T10:05:26.800Z,48.03
2023-02-11T10:07:58.762Z,48.70
2023-02-11T10:10:35.433Z,47.98
2023-02-11T10:13:09.376Z,46.95
2023-02-11T10:15:42.307Z,44.70
2023-02-11T10:18:21.037Z,41.78
2023-02-11T10:20:53.875Z,43.25
2023-02-11T10:23:21.961Z,40.87
2023-02-11T10:25:50.790Z,42.25
2023-02-11T10:28:19.155Z,41.25
2023-02-11T10:30:49.827Z,43.11
2023-02-11T10:33:21.045Z,43.15
2023-02-11T10:35:49.319Z,42.38
2023-02-11T10:38:16.495Z,41.69
2023-02-11T10:40:43.524Z,42.88
2023-02-11T10:43:12.644Z,43.81
2023-02-11T10:45:42.240Z,45.67
2023-02-11T10:48:24.248Z,46.86
2023-02-11T10:51:06.734Z,47.21
2023-02-11T10:53:34.904Z,47.74
2023-02-11T10:56:03.560Z,48.03
2023-02-11T10:58:31.585Z,48.40
2023-02-11T11:00:59.840Z,52.51
2023-02-11T11:03:28.638Z,49.61
2023-02-11T11:05:58.691Z,50.25
2023-02-11T11:08:37.703Z,49.26
2023-02-11T11:11:05.268Z,49.78
2023-02-11T11:13:33.204Z,49.06
2023-02-11T11:16:18.575Z,48.75
2023-02-11T11:18:46.163Z,49.44
2023-02-11T11:21:16.392Z,49.54
2023-02-11T11:23:48.524Z,50.21
2023-02-11T11:26:16.196Z,48.28
2023-02-11T11:28:51.492Z,48.88
2023-02-11T11:31:20.512Z,48.49
2023-02-11T11:33:48.240Z,49.07
2023-02-11T11:36:18.297Z,48.97
2023-02-11T11:38:47.292Z,50.24
2023-02-11T11:41:19.662Z,48.38
2023-02-11T11:43:55.829Z,47.03
2023-02-11T11:46:27.081Z,46.08
2023-02-11T11:48:56.479Z,46.39
2023-02-11T11:51:25.377Z,45.58
2023-02-11T11:53:56.338Z,44.91
2023-02-11T11:56:27.342Z,44.65
2023-02-11T11:58:54.697Z,43.40
2023-02-11T12:01:28.424Z,43.46
2023-02-11T12:04:18.074Z,43.42
2023-02-11T12:06:52.796Z,42.46
2023-02-11T12:09:24.559Z,43.31
2023-02-11T12:12:02.603Z,43.90
2023-02-11T12:14:35.158Z,43.21
2023-02-11T12:17:07.329Z,43.40
2023-02-11T12:19:42.168Z,43.88
2023-02-11T12:22:12.261Z,51.00
2023-02-11T12:24:54.765Z,49.19
2023-02-11T12:27:28.671Z,43.61
2023-02-11T12:30:03.870Z,43.83
2023-02-11T12:32:37.268Z,43.07
2023-02-11T12:35:21.998Z,42.27
2023-02-11T12:38:04.595Z,42.40
2023-02-11T12:40:36.892Z,44.68
2023-02-11T12:43:18.822Z,45.26
2023-02-11T12:46:01.026Z,42.60
2023-02-11T12:48:36.807Z,42.29
2023-02-11T12:51:10.187Z,42.44
2023-02-11T12:53:55.586Z,42.54
2023-02-11T12:56:26.938Z,42.15
2023-02-11T12:58:55.954Z,42.87
2023-02-11T13:01:26.385Z,42.04
2023-02-11T13:03:54.794Z,41.85
2023-02-11T13:06:24.948Z,41.74
2023-02-11T13:08:56.191Z,41.30
2023-02-11T13:11:25.082Z,44.60
2023-02-11T13:13:55.539Z,45.03
2023-02-11T13:16:30.908Z,42.97
2023-02-11T13:19:01.588Z,42.48
2023-02-11T13:21:34.894Z,41.98
2023-02-11T13:24:08.388Z,41.39
2023-02-11T13:26:41.194Z,41.99
2023-02-11T13:29:14.782Z,41.76
2023-02-11T13:31:41.837Z,42.43
2023-02-11T13:34:23.275Z,41.79
2023-02-11T13:36:55.793Z,41.92
2023-02-11T13:39:24.505Z,42.08
2023-02-11T13:42:01.952Z,41.73
2023-02-11T13:44:29.028Z,40.71
2023-02-11T13:46:58.200Z,41.88
2023-02-11T13:49:27.941Z,41.93
2023-02-11T13:51:55.762Z,41.26
2023-02-11T13:54:34.442Z,41.86
2023-02-11T13:57:26.328Z,41.73
2023-02-11T13:59:54.236Z,40.83
2023-02-11T14:02:41.771Z,41.07
2023-02-11T14:05:44.095Z,41.28
2023-02-11T14:08:37.672Z,41.97
2023-02-11T14:11:12.351Z,41.13
2023-02-11T14:14:06.595Z,41.11
2023-02-11T14:16:38.308Z,41.42
2023-02-11T14:19:06.775Z,41.21
2023-02-11T14:21:35.639Z,41.43
2023-02-11T14:24:21.799Z,41.41
2023-02-11T14:26:52.385Z,41.26
2023-02-11T14:29:24.753Z,41.46
2023-02-11T14:31:56.444Z,40.59
2023-02-11T14:34:38.014Z,40.47
2023-02-11T14:37:22.538Z,40.93
2023-02-11T14:39:57.852Z,40.85
2023-02-11T14:42:27.762Z,41.52
2023-02-11T14:44:55.943Z,41.41
2023-02-11T14:47:25.457Z,41.70
2023-02-11T14:49:53.380Z,41.63
2023-02-11T14:52:25.650Z,42.53
2023-02-11T14:54:58.935Z,42.77
2023-02-11T14:57:28.054Z,42.95
2023-02-11T14:59:55.738Z,45.71
2023-02-11T15:02:23.687Z,44.08
2023-02-11T15:04:50.886Z,42.85
2023-02-11T15:07:18.309Z,42.33
2023-02-11T15:09:47.059Z,42.43
2023-02-11T15:12:18.664Z,42.72
2023-02-11T15:14:48.782Z,42.91
2023-02-11T15:17:17.430Z,42.94
2023-02-11T15:19:47.352Z,42.84
2023-02-11T15:22:21.873Z,42.77
2023-02-11T15:24:58.193Z,42.60
2023-02-11T15:27:25.800Z,42.75
2023-02-11T15:29:54.205Z,42.80
2023-02-11T15:32:22.053Z,42.76
2023-02-11T15:34:50.491Z,42.55
2023-02-11T15:37:19.500Z,42.79
2023-02-11T15:39:46.736Z,42.94
2023-02-11T15:42:22.591Z,42.98
2023-02-11T15:44:56.552Z,43.08
2023-02-11T15:47:24.986Z,43.13
2023-02-11T15:49:52.121Z,43.11
2023-02-11T15:52:23.337Z,42.74
2023-02-11T15:54:51.184Z,43.29
2023-02-11T15:57:17.991Z,43.11
2023-02-11T15:59:47.598Z,43.58
2023-02-11T16:02:17.015Z,43.33
2023-02-11T16:04:51.248Z,43.48
2023-02-11T16:07:32.799Z,43.36
2023-02-11T16:09:59.904Z,43.88
2023-02-11T16:12:27.193Z,44.03
2023-02-11T16:14:55.822Z,44.17
2023-02-11T16:17:25.039Z,44.14
